Rick Husband Amarillo International Airport Amarillo US
ICAO: KAMA
IATA: AMA
Category: Large
Scheduled Services: Yes

Elevation: 3607 ft
TransAlt. 18000 ft.

Airport Communications:
APP/DEP:121.15
ATIS:118.85
CLNC DEL:121.65
CTAF:118.3
GND:121.9
FORT WORTH RDO:122.65
TWR:118.3
UNICOM:122.95

KAMA Zoom In..

Runways:

(A) RW 04 length 13502 ft width 200 ft
ILS 110.30 / hdg 38

(B) RW 13 length 7901 ft width 150 ft
---- / hdg 129

(C) RW 22 length 13502 ft width 200 ft
---- / hdg 218

(D) RW 31 length 7901 ft width 150 ft
---- / hdg 309

Location; KAMA
Day. 21 / Time. 23.53 Zulu
* Altimeter: 29.75
* Temperature: 06° c. 42.8°f.
* Wind from: 330° Speed 15 kn with Gusts up to 23 kn.
Dewpoint: -03° c.
Visibility: 10 Statute Miles.
Clouds: Scattered 5500 ft.
Clouds: Overcast 7000 ft.

KAMA 212353Z 33015G23KT 10SM SCT055 OVC070 06/M03 A2975 RMK AO2 PK WND 30033/2316 WSHFT 2307 SLP068 T00561028 10122 20056 53028


Wind From 330°
Speed 15 kn.

jpsM music video
CHECK IT OUT

jpsM - It Moves..

 
jpsmedia.com for Web Design  worldairports.se 2018   terms of use